sensor_id;sensor_type;location;lat;lon;timestamp;temperature;humidity
10905;DHT22;5505;51.450;9.254;2022-07-29T00:02:20;16.40;99.90
10905;DHT22;5505;51.450;9.254;2022-07-29T00:05:08;16.40;99.90
10905;DHT22;5505;51.450;9.254;2022-07-29T00:07:58;16.50;99.90
10905;DHT22;5505;51.450;9.254;2022-07-29T00:10:45;16.40;99.90
10905;DHT22;5505;51.450;9.254;2022-07-29T00:13:32;16.40;99.90
10905;DHT22;5505;51.450;9.254;2022-07-29T00:16:19;16.50;99.90
10905;DHT22;5505;51.450;9.254;2022-07-29T00:19:07;16.50;99.90
10905;DHT22;5505;51.450;9.254;2022-07-29T00:21:54;16.40;99.90
10905;DHT22;5505;51.450;9.254;2022-07-29T00:24:41;16.40;99.90
10905;DHT22;5505;51.450;9.254;2022-07-29T00:27:27;16.40;99.90
10905;DHT22;5505;51.450;9.254;2022-07-29T00:30:14;16.40;99.90
10905;DHT22;5505;51.450;9.254;2022-07-29T00:33:01;16.40;99.90
10905;DHT22;5505;51.450;9.254;2022-07-29T00:35:49;16.40;99.90
10905;DHT22;5505;51.450;9.254;2022-07-29T00:38:36;16.40;99.90
10905;DHT22;5505;51.450;9.254;2022-07-29T00:41:23;16.50;99.90
10905;DHT22;5505;51.450;9.254;2022-07-29T00:44:09;16.50;99.90
10905;DHT22;5505;51.450;9.254;2022-07-29T00:46:56;16.50;99.90
10905;DHT22;5505;51.450;9.254;2022-07-29T00:49:43;16.60;99.90
10905;DHT22;5505;51.450;9.254;2022-07-29T00:52:32;16.60;99.90
10905;DHT22;5505;51.450;9.254;2022-07-29T00:55:20;17.70;99.90
10905;DHT22;5505;51.450;9.254;2022-07-29T00:58:07;16.50;99.90
10905;DHT22;5505;51.450;9.254;2022-07-29T01:00:53;16.50;99.90
10905;DHT22;5505;51.450;9.254;2022-07-29T01:03:40;16.40;99.90
10905;DHT22;5505;51.450;9.254;2022-07-29T01:06:27;16.30;99.90
10905;DHT22;5505;51.450;9.254;2022-07-29T01:09:16;16.10;99.90
10905;DHT22;5505;51.450;9.254;2022-07-29T01:12:05;16.10;99.90
10905;DHT22;5505;51.450;9.254;2022-07-29T01:14:53;16.10;99.90
10905;DHT22;5505;51.450;9.254;2022-07-29T01:17:43;16.00;99.90
10905;DHT22;5505;51.450;9.254;2022-07-29T01:20:44;16.10;99.90
10905;DHT22;5505;51.450;9.254;2022-07-29T01:24:04;16.10;99.90
10905;DHT22;5505;51.450;9.254;2022-07-29T01:26:59;16.00;99.90
10905;DHT22;5505;51.450;9.254;2022-07-29T01:29:55;16.00;99.90
10905;DHT22;5505;51.450;9.254;2022-07-29T01:32:47;16.10;99.90
10905;DHT22;5505;51.450;9.254;2022-07-29T01:35:38;16.00;99.90
10905;DHT22;5505;51.450;9.254;2022-07-29T01:38:28;16.10;99.90
10905;DHT22;5505;51.450;9.254;2022-07-29T01:41:16;16.10;99.90
10905;DHT22;5505;51.450;9.254;2022-07-29T01:44:13;16.10;99.90
10905;DHT22;5505;51.450;9.254;2022-07-29T01:47:15;16.00;99.90
10905;DHT22;5505;51.450;9.254;2022-07-29T01:50:07;16.00;99.90
10905;DHT22;5505;51.450;9.254;2022-07-29T01:52:58;16.00;99.90
10905;DHT22;5505;51.450;9.254;2022-07-29T01:55:46;15.90;99.90
10905;DHT22;5505;51.450;9.254;2022-07-29T01:58:35;15.90;99.90
10905;DHT22;5505;51.450;9.254;2022-07-29T02:01:24;15.80;99.90
10905;DHT22;5505;51.450;9.254;2022-07-29T02:04:15;15.80;99.90
10905;DHT22;5505;51.450;9.254;2022-07-29T02:07:05;15.70;99.90
10905;DHT22;5505;51.450;9.254;2022-07-29T02:09:53;15.70;99.90
10905;DHT22;5505;51.450;9.254;2022-07-29T02:12:42;15.70;99.90
10905;DHT22;5505;51.450;9.254;2022-07-29T02:15:32;15.70;99.90
10905;DHT22;5505;51.450;9.254;2022-07-29T02:18:20;15.70;99.90
10905;DHT22;5505;51.450;9.254;2022-07-29T02:21:11;15.70;99.90
10905;DHT22;5505;51.450;9.254;2022-07-29T02:24:01;15.60;99.90
10905;DHT22;5505;51.450;9.254;2022-07-29T02:26:50;15.60;99.90
10905;DHT22;5505;51.450;9.254;2022-07-29T02:29:39;15.60;99.90
10905;DHT22;5505;51.450;9.254;2022-07-29T02:32:27;15.60;99.90
10905;DHT22;5505;51.450;9.254;2022-07-29T02:35:16;15.50;99.90
10905;DHT22;5505;51.450;9.254;2022-07-29T02:38:05;15.40;99.90
10905;DHT22;5505;51.450;9.254;2022-07-29T02:41:15;15.40;99.90
10905;DHT22;5505;51.450;9.254;2022-07-29T02:44:06;15.30;99.90
10905;DHT22;5505;51.450;9.254;2022-07-29T02:47:02;15.30;99.90
10905;DHT22;5505;51.450;9.254;2022-07-29T02:49:55;15.30;99.90
10905;DHT22;5505;51.450;9.254;2022-07-29T02:52:45;15.30;99.90
10905;DHT22;5505;51.450;9.254;2022-07-29T02:55:42;15.30;99.90
10905;DHT22;5505;51.450;9.254;2022-07-29T02:58:32;15.30;99.90
10905;DHT22;5505;51.450;9.254;2022-07-29T03:01:22;15.20;99.90
10905;DHT22;5505;51.450;9.254;2022-07-29T03:04:10;15.10;99.90
10905;DHT22;5505;51.450;9.254;2022-07-29T03:06:58;15.00;99.90
10905;DHT22;5505;51.450;9.254;2022-07-29T03:09:46;15.00;99.90
10905;DHT22;5505;51.450;9.254;2022-07-29T03:12:35;15.00;99.90
10905;DHT22;5505;51.450;9.254;2022-07-29T03:15:23;15.00;99.90
10905;DHT22;5505;51.450;9.254;2022-07-29T03:18:10;15.00;99.90
10905;DHT22;5505;51.450;9.254;2022-07-29T03:20:57;15.00;99.90
10905;DHT22;5505;51.450;9.254;2022-07-29T03:23:44;15.00;99.90
10905;DHT22;5505;51.450;9.254;2022-07-29T03:26:31;15.00;99.90
10905;DHT22;5505;51.450;9.254;2022-07-29T03:29:19;15.00;99.90
10905;DHT22;5505;51.450;9.254;2022-07-29T03:32:06;15.00;99.90
10905;DHT22;5505;51.450;9.254;2022-07-29T03:34:53;15.00;99.90
10905;DHT22;5505;51.450;9.254;2022-07-29T03:37:40;14.90;99.90
10905;DHT22;5505;51.450;9.254;2022-07-29T03:40:31;14.90;99.90
10905;DHT22;5505;51.450;9.254;2022-07-29T03:43:20;14.90;99.90
10905;DHT22;5505;51.450;9.254;2022-07-29T03:46:10;14.90;99.90
10905;DHT22;5505;51.450;9.254;2022-07-29T03:49:00;14.80;99.90
10905;DHT22;5505;51.450;9.254;2022-07-29T03:51:47;14.80;99.90
10905;DHT22;5505;51.450;9.254;2022-07-29T03:54:34;14.80;99.90
10905;DHT22;5505;51.450;9.254;2022-07-29T03:57:25;14.90;99.90
10905;DHT22;5505;51.450;9.254;2022-07-29T04:00:14;15.00;99.90
10905;DHT22;5505;51.450;9.254;2022-07-29T04:03:04;14.90;99.90
10905;DHT22;5505;51.450;9.254;2022-07-29T04:06:02;15.00;99.90
10905;DHT22;5505;51.450;9.254;2022-07-29T04:08:51;15.10;99.90
10905;DHT22;5505;51.450;9.254;2022-07-29T04:11:39;15.00;99.90
10905;DHT22;5505;51.450;9.254;2022-07-29T04:14:26;15.00;99.90
10905;DHT22;5505;51.450;9.254;2022-07-29T04:17:13;15.10;99.90
10905;DHT22;5505;51.450;9.254;2022-07-29T04:20:01;15.00;99.90
10905;DHT22;5505;51.450;9.254;2022-07-29T04:22:48;15.10;99.90
10905;DHT22;5505;51.450;9.254;2022-07-29T04:25:37;15.10;99.90
10905;DHT22;5505;51.450;9.254;2022-07-29T04:28:24;15.10;99.90
10905;DHT22;5505;51.450;9.254;2022-07-29T04:31:12;15.50;99.90
10905;DHT22;5505;51.450;9.254;2022-07-29T04:33:59;15.00;99.90
10905;DHT22;5505;51.450;9.254;2022-07-29T04:36:47;15.00;99.90
10905;DHT22;5505;51.450;9.254;2022-07-29T04:39:34;15.10;99.90
10905;DHT22;5505;51.450;9.254;2022-07-29T04:42:21;15.00;99.90
10905;DHT22;5505;51.450;9.254;2022-07-29T04:45:08;15.00;99.90
10905;DHT22;5505;51.450;9.254;2022-07-29T04:47:55;15.00;99.90
10905;DHT22;5505;51.450;9.254;2022-07-29T04:50:42;15.00;99.90
10905;DHT22;5505;51.450;9.254;2022-07-29T04:53:31;15.00;99.90
10905;DHT22;5505;51.450;9.254;2022-07-29T04:56:17;15.10;99.90
10905;DHT22;5505;51.450;9.254;2022-07-29T04:59:04;15.30;99.90
10905;DHT22;5505;51.450;9.254;2022-07-29T05:01:51;15.40;99.90
10905;DHT22;5505;51.450;9.254;2022-07-29T05:04:38;15.30;99.90
10905;DHT22;5505;51.450;9.254;2022-07-29T05:07:25;15.30;99.90
10905;DHT22;5505;51.450;9.254;2022-07-29T05:10:13;15.30;99.90
10905;DHT22;5505;51.450;9.254;2022-07-29T05:12:59;15.30;99.90
10905;DHT22;5505;51.450;9.254;2022-07-29T05:15:46;15.40;99.90
10905;DHT22;5505;51.450;9.254;2022-07-29T05:18:33;15.40;99.90
10905;DHT22;5505;51.450;9.254;2022-07-29T05:21:20;15.40;99.90
10905;DHT22;5505;51.450;9.254;2022-07-29T05:24:07;15.30;99.90
10905;DHT22;5505;51.450;9.254;2022-07-29T05:26:55;15.30;99.90
10905;DHT22;5505;51.450;9.254;2022-07-29T05:29:42;15.30;99.90
10905;DHT22;5505;51.450;9.254;2022-07-29T05:32:29;15.30;99.90
10905;DHT22;5505;51.450;9.254;2022-07-29T05:35:17;15.30;99.90
10905;DHT22;5505;51.450;9.254;2022-07-29T05:38:04;15.40;99.90
10905;DHT22;5505;51.450;9.254;2022-07-29T05:40:51;15.60;99.90
10905;DHT22;5505;51.450;9.254;2022-07-29T05:43:39;15.80;99.90
10905;DHT22;5505;51.450;9.254;2022-07-29T05:46:26;15.90;99.90
10905;DHT22;5505;51.450;9.254;2022-07-29T05:49:12;15.90;99.90
10905;DHT22;5505;51.450;9.254;2022-07-29T05:51:59;15.80;99.90
10905;DHT22;5505;51.450;9.254;2022-07-29T05:54:46;15.70;99.90
10905;DHT22;5505;51.450;9.254;2022-07-29T05:57:33;15.80;99.90
10905;DHT22;5505;51.450;9.254;2022-07-29T06:00:21;15.80;99.90
10905;DHT22;5505;51.450;9.254;2022-07-29T06:03:08;15.80;99.90
10905;DHT22;5505;51.450;9.254;2022-07-29T06:05:55;15.80;99.90
10905;DHT22;5505;51.450;9.254;2022-07-29T06:08:42;15.70;99.90
10905;DHT22;5505;51.450;9.254;2022-07-29T06:11:28;15.70;99.90
10905;DHT22;5505;51.450;9.254;2022-07-29T06:14:15;15.70;99.90
10905;DHT22;5505;51.450;9.254;2022-07-29T06:17:04;15.80;99.90
10905;DHT22;5505;51.450;9.254;2022-07-29T06:19:51;16.00;99.90
10905;DHT22;5505;51.450;9.254;2022-07-29T06:22:37;16.10;99.90
10905;DHT22;5505;51.450;9.254;2022-07-29T06:25:24;16.30;99.90
10905;DHT22;5505;51.450;9.254;2022-07-29T06:28:12;16.40;99.90
10905;DHT22;5505;51.450;9.254;2022-07-29T06:30:59;16.50;99.90
10905;DHT22;5505;51.450;9.254;2022-07-29T06:33:47;16.70;99.90
10905;DHT22;5505;51.450;9.254;2022-07-29T06:36:34;16.80;99.90
10905;DHT22;5505;51.450;9.254;2022-07-29T06:39:21;16.90;99.90
10905;DHT22;5505;51.450;9.254;2022-07-29T06:42:08;16.90;99.90
10905;DHT22;5505;51.450;9.254;2022-07-29T06:44:55;17.00;99.90
10905;DHT22;5505;51.450;9.254;2022-07-29T06:47:43;17.00;99.90
10905;DHT22;5505;51.450;9.254;2022-07-29T06:50:31;17.10;99.90
10905;DHT22;5505;51.450;9.254;2022-07-29T06:53:18;17.20;99.90
10905;DHT22;5505;51.450;9.254;2022-07-29T06:56:06;17.20;99.90
10905;DHT22;5505;51.450;9.254;2022-07-29T06:58:53;17.30;99.90
10905;DHT22;5505;51.450;9.254;2022-07-29T07:01:42;17.40;99.90
10905;DHT22;5505;51.450;9.254;2022-07-29T07:04:29;17.40;99.90
10905;DHT22;5505;51.450;9.254;2022-07-29T07:07:17;17.40;99.90
10905;DHT22;5505;51.450;9.254;2022-07-29T07:10:05;17.40;99.90
10905;DHT22;5505;51.450;9.254;2022-07-29T07:12:52;17.40;99.90
10905;DHT22;5505;51.450;9.254;2022-07-29T07:15:38;17.50;99.90
10905;DHT22;5505;51.450;9.254;2022-07-29T07:18:25;17.50;99.90
10905;DHT22;5505;51.450;9.254;2022-07-29T07:21:13;17.60;99.90
10905;DHT22;5505;51.450;9.254;2022-07-29T07:24:01;17.70;99.90
10905;DHT22;5505;51.450;9.254;2022-07-29T07:26:48;17.80;99.90
10905;DHT22;5505;51.450;9.254;2022-07-29T07:29:35;17.80;99.90
10905;DHT22;5505;51.450;9.254;2022-07-29T07:32:21;17.80;99.90
10905;DHT22;5505;51.450;9.254;2022-07-29T07:35:09;17.80;99.90
10905;DHT22;5505;51.450;9.254;2022-07-29T07:37:56;17.80;99.90
10905;DHT22;5505;51.450;9.254;2022-07-29T07:40:44;19.40;99.90
10905;DHT22;5505;51.450;9.254;2022-07-29T07:43:32;17.80;99.90
10905;DHT22;5505;51.450;9.254;2022-07-29T07:46:19;17.80;99.90
10905;DHT22;5505;51.450;9.254;2022-07-29T07:49:06;17.70;99.90
10905;DHT22;5505;51.450;9.254;2022-07-29T07:51:52;17.70;99.90
10905;DHT22;5505;51.450;9.254;2022-07-29T07:54:39;17.60;99.90
10905;DHT22;5505;51.450;9.254;2022-07-29T07:57:27;17.70;99.90
10905;DHT22;5505;51.450;9.254;2022-07-29T08:00:15;18.00;99.90
10905;DHT22;5505;51.450;9.254;2022-07-29T08:03:02;17.60;99.90
10905;DHT22;5505;51.450;9.254;2022-07-29T08:05:49;17.50;99.90
10905;DHT22;5505;51.450;9.254;2022-07-29T08:08:37;17.50;99.90
10905;DHT22;5505;51.450;9.254;2022-07-29T08:11:23;17.40;99.90
10905;DHT22;5505;51.450;9.254;2022-07-29T08:14:12;17.40;99.90
10905;DHT22;5505;51.450;9.254;2022-07-29T08:16:59;17.40;99.90
10905;DHT22;5505;51.450;9.254;2022-07-29T08:19:46;17.40;99.90
10905;DHT22;5505;51.450;9.254;2022-07-29T08:22:33;17.40;99.90
10905;DHT22;5505;51.450;9.254;2022-07-29T08:25:20;17.40;99.90
10905;DHT22;5505;51.450;9.254;2022-07-29T08:28:08;17.40;99.90
10905;DHT22;5505;51.450;9.254;2022-07-29T08:30:56;17.50;99.90
10905;DHT22;5505;51.450;9.254;2022-07-29T08:33:43;17.50;99.90
10905;DHT22;5505;51.450;9.254;2022-07-29T08:36:30;17.70;99.90
10905;DHT22;5505;51.450;9.254;2022-07-29T08:39:17;17.80;99.90
10905;DHT22;5505;51.450;9.254;2022-07-29T08:42:05;17.50;99.90
